aviador You're here:

OIMM Decoded Metar

MASHHAD (AFB/CIV in IRAN
Report Time2017-08-19 01:30:00
UTC Time2017-08-19 01:50:22
Flight Rules vfr VFR
Wind300° at 04 kt
W.Decomp.*RWY 31: 3.9 kt HW 0.9 kt LCW
W.Rank300° ranks 18
Current wind is below 300° avg. (8.4)
Visibility9999 m
Phenomena:N/A
Clouds:N/A
Expected CloudBase > 6,800 ft AGL from Temp-Dew spread
CeilingNone
Temp18°C (ISA +9)
Dew Point01°C (32% RH)
AAT14.7°C
QNH1016 hPa
Density Alt4,304 ft
Elevation3,215 ft
Report Wrong Elevation
Raw Report
METAR OIMM 190130Z 30004KT CAVOK 18/01 Q1016 A3001=

Extra information for OIMM:More info

Metar Taf Metar & Taf Last 4 Metars F.Rules Stats Wind Profile Meteogram Temp Stats Airport Information Weather charts Add Link Nearby VenuesMetar ALERT Operation Metar Decoded Social comments